Nearby METAR Reports

 

EDLW - Dortmund/Wickede, Germany
Distance from station: OSO 17km
Aktuell: 01/12/2020 03:20
geschlossene Wolkendecke
geschlossene Wolkendecke
 Wind aus S
Wind: S 22 km/h
Temperatur: 4°C
Wind Chill: -1°C
Taupunkt: 3°C
Luftfeuchte: 93%
Luftdruck: 1011 hPa
Clouds: geschlossene Wolkendecke
Visibility: 10 km
Cloud details: Stark bewölkt 244 m
geschlossene Wolkendecke 305 m
2020/12/01 02:20 EDLW 010220Z AUTO 19012KT 9999 // BKN008/// OVC010/// 04/03 Q1011
EDDL - Duesseldorf, Germany
Distance from station: SW 52km
Aktuell: 01/12/2020 03:20
geschlossene Wolkendecke
geschlossene Wolkendecke
 Wind aus S
Wind: S 13 km/h
Temperatur: 5°C
Wind Chill: 2°C
Taupunkt: 5°C
Luftfeuchte: 100%
Luftdruck: 1012 hPa
Clouds: geschlossene Wolkendecke
Visibility: 10 km
Cloud details: geschlossene Wolkendecke 183 m
2020/12/01 02:20 EDDL 010220Z 18007KT 9999 OVC006 05/05 Q1012 NOSIG
 
EDDG - Muenster/Osnabru, Germany
Distance from station: NNO 67km
Aktuell: 01/12/2020 03:20
sehr leichter Niederschlag, Drizzle, Stark bewölkt
sehr leichter Niederschlag, Drizzle, Stark bewölkt
 Wind aus SW
Wind: SW 11 km/h
Temperatur: 5°C
Wind Chill: 2°C
Taupunkt: 5°C
Luftfeuchte: 100%
Luftdruck: 1010 hPa
Zusammenfassung: sehr leichter Niederschlag, Drizzle
Clouds: Stark bewölkt
Visibility: 5 km
Cloud details: Stark bewölkt 152 m
2020/12/01 02:20 EDDG 010220Z 22006KT 200V260 4500 -RADZ BKN005 05/05 Q1010 TEMPO 7000
EDLN - Monchengladbach, Germany
Distance from station: WSW 72km
Aktuell: 01/12/2020 03:20
geschlossene Wolkendecke
geschlossene Wolkendecke
 Wind aus WSW
Wind: WSW 9 km/h
Temperatur: 6°C
Wind Chill: 4°C
Taupunkt: 5°C
Luftfeuchte: 93%
Luftdruck: 1012 hPa
Clouds: geschlossene Wolkendecke
Visibility: 10 km
Cloud details: Stark bewölkt 213 m
geschlossene Wolkendecke 335 m
2020/12/01 02:20 EDLN 010220Z AUTO 25005KT 210V290 9999 // BKN007/// OVC011/// 06/05 Q1012
 
EDDK - Koeln/Bonn, Germany
Distance from station: SSW 79km
Aktuell: 01/12/2020 03:20
sehr leichter Niederschlag, Drizzle, geschlossene Wolkendecke
sehr leichter Niederschlag, Drizzle, geschlossene Wolkendecke
 Wind aus SSO
Wind: SSO 11 km/h
Temperatur: 3°C
Wind Chill: 0°C
Taupunkt: 2°C
Luftfeuchte: 93%
Luftdruck: 1013 hPa
Zusammenfassung: sehr leichter Niederschlag, Drizzle
Clouds: geschlossene Wolkendecke
Visibility: 7 km
Cloud details: Leicht bewölkt 152 m
Stark bewölkt 274 m
geschlossene Wolkendecke 396 m
2020/12/01 02:20 EDDK 010220Z 15006KT 7000 -RADZ FEW005 BKN009 OVC013 03/02 Q1013 RERA TEMPO 4000
EDLP - Paderborn/Lippst, Germany
Distance from station: O 85km
Aktuell: 30/11/2020 21:50
NOT Current
sehr leichter Niederschlag, geschlossene Wolkendecke
sehr leichter Niederschlag, geschlossene Wolkendecke
 Wind aus S
Wind: S 24 km/h
Temperatur: 3°C
Wind Chill: -2°C
Taupunkt: 1°C
Luftfeuchte: 87%
Luftdruck: 1014 hPa
Zusammenfassung: sehr leichter Niederschlag
Clouds: geschlossene Wolkendecke
Visibility: 10 km
Cloud details: Leicht bewölkt 640 m
Teilweise bewölkt 792 m
geschlossene Wolkendecke 914 m
2020/11/30 20:50 EDLP 302050Z 18013KT 9999 -RA FEW021 SCT026 OVC030 03/01 Q1014
 
EDLV - Niederrhein, Germany
Distance from station: W 86km
Aktuell: 30/11/2020 23:50
NOT Current
sehr leichter Niederschlag, Stark bewölkt
sehr leichter Niederschlag, Stark bewölkt
 Wind aus SW
Wind: SW 20 km/h
Temperatur: 5°C
Wind Chill: 1°C
Taupunkt: 4°C
Luftfeuchte: 93%
Luftdruck: 1013 hPa
Zusammenfassung: sehr leichter Niederschlag
Clouds: Stark bewölkt
Visibility: 8 km
Cloud details: Stark bewölkt 122 m
2020/11/30 22:50 EDLV 302250Z 22011KT 8000 -RA BKN004 05/04 Q1013
ETNN - Noervenich (gaf), Germany
Distance from station: SSW 97km
Aktuell: 01/12/2020 03:20
Stark bewölkt
Stark bewölkt
 Wind aus SW
Wind: SW 19 km/h
Temperatur: 6°C
Wind Chill: 3°C
Taupunkt: 4°C
Luftfeuchte: 87%
Luftdruck: 1012 hPa
Clouds: Stark bewölkt
Visibility: 10 km
Cloud details: Stark bewölkt 305 m
2020/12/01 02:20 ETNN 010220Z 22010KT 9999 BKN010 06/04 Q1012 GRN